createdAt,value
2022-08-07T00:01:42.948Z,6.7
2022-08-07T00:11:08.918Z,6.8
2022-08-07T00:21:56.656Z,6.9
2022-08-07T00:31:12.734Z,6.8
2022-08-07T00:41:09.956Z,6.8
2022-08-07T00:51:08.827Z,6.7
2022-08-07T01:01:09.119Z,6.6
2022-08-07T01:11:10.767Z,6.7
2022-08-07T01:21:17.495Z,6.9
2022-08-07T01:31:09.077Z,6.9
2022-08-07T01:41:09.093Z,7.1
2022-08-07T01:51:24.304Z,7
2022-08-07T02:01:10.402Z,7
2022-08-07T02:11:09.154Z,6.9
2022-08-07T02:21:09.182Z,6.8
2022-08-07T02:31:18.725Z,6.8
2022-08-07T02:41:09.223Z,6.8
2022-08-07T02:51:29.112Z,6.8
2022-08-07T03:01:15.958Z,6.7
2022-08-07T03:11:09.285Z,6.7
2022-08-07T03:21:11.402Z,6.7
2022-08-07T03:31:09.311Z,6.7
2022-08-07T03:51:10.265Z,6.8
2022-08-07T04:01:11.106Z,7
2022-08-07T04:12:26.933Z,6.8
2022-08-07T04:21:09.434Z,6.8
2022-08-07T04:31:09.446Z,7.1
2022-08-07T04:41:09.479Z,7
2022-08-07T04:51:09.534Z,6.9
2022-08-07T05:01:13.544Z,6.8
2022-08-07T05:11:09.535Z,7.1
2022-08-07T05:21:09.553Z,7.4
2022-08-07T05:31:09.571Z,7.5
2022-08-07T05:41:14.020Z,7.5
2022-08-07T05:51:09.600Z,8
2022-08-07T06:01:10.786Z,7.7
2022-08-07T06:11:09.628Z,7.7
2022-08-07T06:22:15.158Z,8.1
2022-08-07T06:31:09.675Z,8.2
2022-08-07T06:41:12.999Z,8.4
2022-08-07T06:51:09.726Z,8.5
2022-08-07T07:01:09.777Z,7.9
2022-08-07T07:11:13.897Z,7.8
2022-08-07T07:21:13.557Z,8.2
2022-08-07T07:31:09.752Z,9.3
2022-08-07T07:41:09.756Z,9
2022-08-07T07:51:09.802Z,8.7
2022-08-07T08:02:02.805Z,9
2022-08-07T08:11:16.256Z,8.9
2022-08-07T08:31:15.685Z,9.7
2022-08-07T08:41:09.850Z,9.8
2022-08-07T09:01:15.904Z,10
2022-08-07T09:11:09.923Z,9.6
2022-08-07T09:21:13.591Z,9.7
2022-08-07T09:31:09.955Z,10.3
2022-08-07T09:41:09.937Z,9.9
2022-08-07T09:51:26.099Z,9.6
2022-08-07T10:01:14.766Z,10.1
2022-08-07T10:12:00.545Z,9.9
2022-08-07T10:21:20.100Z,10.4
2022-08-07T10:31:11.242Z,10.6
2022-08-07T10:41:10.026Z,9.7
2022-08-07T10:51:16.867Z,9.9
2022-08-07T11:01:11.579Z,10.1
2022-08-07T11:21:10.089Z,9.9
2022-08-07T11:31:11.405Z,10.1
2022-08-07T11:41:09.928Z,10.1
2022-08-07T11:51:10.142Z,10
2022-08-07T12:01:10.184Z,10.7
2022-08-07T12:11:21.137Z,11.3
2022-08-07T12:21:10.160Z,11.6
2022-08-07T12:31:10.159Z,11.2
2022-08-07T12:41:10.266Z,11.9
2022-08-07T12:51:17.116Z,12.7
2022-08-07T13:01:10.295Z,12.5
2022-08-07T13:11:10.238Z,12.3
2022-08-07T13:21:10.248Z,12.5
2022-08-07T13:51:27.181Z,11.8
2022-08-07T14:01:10.294Z,11.2
2022-08-07T14:11:17.299Z,11.5
2022-08-07T14:21:12.035Z,11.7
2022-08-07T14:31:10.351Z,10.4
2022-08-07T14:51:15.629Z,11.7
2022-08-07T15:01:21.654Z,13.2
2022-08-07T15:11:10.397Z,11.4
2022-08-07T15:21:41.194Z,10
2022-08-07T15:31:10.459Z,9.5
2022-08-07T15:41:23.461Z,9
2022-08-07T16:01:10.519Z,8.3
2022-08-07T16:11:26.472Z,9
2022-08-07T16:21:44.037Z,9
2022-08-07T16:31:10.525Z,8.6
2022-08-07T16:41:10.610Z,8.4
2022-08-07T16:51:54.572Z,8.5
2022-08-07T17:01:10.636Z,8.6
2022-08-07T17:11:14.269Z,8.7
2022-08-07T17:21:18.896Z,8.6
2022-08-07T17:31:15.930Z,8.6
2022-08-07T17:51:11.438Z,8.6
2022-08-07T18:01:20.664Z,8.6
2022-08-07T18:11:53.701Z,8.4
2022-08-07T18:21:37.336Z,8.3
2022-08-07T18:31:10.695Z,8.3
2022-08-07T18:41:17.044Z,8.1
2022-08-07T18:51:10.730Z,8.1
2022-08-07T19:02:18.920Z,8
2022-08-07T19:11:35.062Z,7.8
2022-08-07T19:21:45.094Z,7.7
2022-08-07T19:31:40.482Z,7.6
2022-08-07T19:41:10.633Z,7.7
2022-08-07T19:51:19.426Z,7.5
2022-08-07T20:01:10.818Z,7.5
2022-08-07T20:11:10.886Z,7.5
2022-08-07T20:21:21.422Z,7.5
2022-08-07T20:31:10.875Z,7.5
2022-08-07T20:41:10.790Z,7.5
2022-08-07T20:51:10.930Z,7.4
2022-08-07T21:01:19.317Z,7.5
2022-08-07T21:11:12.377Z,7.4
2022-08-07T21:21:10.962Z,7.4
2022-08-07T21:31:10.963Z,7.5
2022-08-07T21:41:11.191Z,7.5
2022-08-07T21:51:20.049Z,7.3
2022-08-07T22:01:13.988Z,7.7
2022-08-07T22:11:11.044Z,7.7
2022-08-07T22:21:11.574Z,7.7
2022-08-07T22:31:11.074Z,7.7
2022-08-07T22:41:11.073Z,7.8
2022-08-07T22:51:11.099Z,7.7
2022-08-07T23:01:11.121Z,7.8
2022-08-07T23:11:13.343Z,7.7
2022-08-07T23:21:11.149Z,7.6
2022-08-07T23:41:11.329Z,7.8
2022-08-07T23:52:57.194Z,7.8
